sensor_id;sensor_type;location;lat;lon;timestamp;P1;durP1;ratioP1;P2;durP2;ratioP2
55423;SDS011;41294;42.666;23.350;2023-09-12T00:00:55;7.03;;;3.80;;
55423;SDS011;41294;42.666;23.350;2023-09-12T00:03:22;3.73;;;3.27;;
55423;SDS011;41294;42.666;23.350;2023-09-12T00:05:55;6.90;;;3.63;;
55423;SDS011;41294;42.666;23.350;2023-09-12T00:08:21;7.90;;;3.77;;
55423;SDS011;41294;42.666;23.350;2023-09-12T00:10:57;3.63;;;3.20;;
55423;SDS011;41294;42.666;23.350;2023-09-12T00:13:27;6.87;;;3.23;;
55423;SDS011;41294;42.666;23.350;2023-09-12T00:15:52;5.60;;;3.30;;
55423;SDS011;41294;42.666;23.350;2023-09-12T00:18:18;7.70;;;3.83;;
55423;SDS011;41294;42.666;23.350;2023-09-12T00:20:43;6.13;;;3.65;;
55423;SDS011;41294;42.666;23.350;2023-09-12T00:23:09;3.55;;;3.13;;
55423;SDS011;41294;42.666;23.350;2023-09-12T00:25:34;4.10;;;3.17;;
55423;SDS011;41294;42.666;23.350;2023-09-12T00:27:59;4.43;;;3.07;;
55423;SDS011;41294;42.666;23.350;2023-09-12T00:30:25;4.00;;;3.33;;
55423;SDS011;41294;42.666;23.350;2023-09-12T00:32:50;4.33;;;3.57;;
55423;SDS011;41294;42.666;23.350;2023-09-12T00:35:16;4.73;;;3.60;;
55423;SDS011;41294;42.666;23.350;2023-09-12T00:37:41;6.50;;;3.77;;
55423;SDS011;41294;42.666;23.350;2023-09-12T00:40:06;4.40;;;3.27;;
55423;SDS011;41294;42.666;23.350;2023-09-12T00:42:32;4.83;;;3.13;;
55423;SDS011;41294;42.666;23.350;2023-09-12T00:44:58;4.90;;;3.10;;
55423;SDS011;41294;42.666;23.350;2023-09-12T00:47:23;5.47;;;3.00;;
55423;SDS011;41294;42.666;23.350;2023-09-12T00:49:49;4.23;;;2.70;;
55423;SDS011;41294;42.666;23.350;2023-09-12T00:52:16;5.10;;;3.40;;
55423;SDS011;41294;42.666;23.350;2023-09-12T00:54:43;3.23;;;2.90;;
55423;SDS011;41294;42.666;23.350;2023-09-12T00:57:08;4.57;;;3.20;;
55423;SDS011;41294;42.666;23.350;2023-09-12T00:59:34;5.90;;;3.00;;
55423;SDS011;41294;42.666;23.350;2023-09-12T01:01:59;4.17;;;2.93;;
55423;SDS011;41294;42.666;23.350;2023-09-12T01:04:26;4.10;;;3.27;;
55423;SDS011;41294;42.666;23.350;2023-09-12T01:06:52;3.37;;;3.00;;
55423;SDS011;41294;42.666;23.350;2023-09-12T01:09:18;5.17;;;3.30;;
55423;SDS011;41294;42.666;23.350;2023-09-12T01:11:43;3.97;;;3.30;;
55423;SDS011;41294;42.666;23.350;2023-09-12T01:14:09;4.40;;;2.97;;
55423;SDS011;41294;42.666;23.350;2023-09-12T01:16:35;5.17;;;3.57;;
55423;SDS011;41294;42.666;23.350;2023-09-12T01:19:00;6.40;;;3.27;;
55423;SDS011;41294;42.666;23.350;2023-09-12T01:27:29;6.67;;;3.70;;
55423;SDS011;41294;42.666;23.350;2023-09-12T01:29:57;4.67;;;3.80;;
55423;SDS011;41294;42.666;23.350;2023-09-12T01:32:26;4.03;;;3.30;;
55423;SDS011;41294;42.666;23.350;2023-09-12T01:34:54;4.83;;;3.00;;
55423;SDS011;41294;42.666;23.350;2023-09-12T01:37:19;6.83;;;3.27;;
55423;SDS011;41294;42.666;23.350;2023-09-12T01:39:44;3.50;;;3.20;;
55423;SDS011;41294;42.666;23.350;2023-09-12T01:42:14;11.23;;;4.03;;
55423;SDS011;41294;42.666;23.350;2023-09-12T01:44:44;6.80;;;3.57;;
55423;SDS011;41294;42.666;23.350;2023-09-12T01:47:12;5.47;;;3.40;;
55423;SDS011;41294;42.666;23.350;2023-09-12T01:49:39;5.60;;;3.20;;
55423;SDS011;41294;42.666;23.350;2023-09-12T01:52:07;5.60;;;3.20;;
55423;SDS011;41294;42.666;23.350;2023-09-12T01:54:34;6.63;;;3.67;;
55423;SDS011;41294;42.666;23.350;2023-09-12T01:57:02;5.77;;;3.37;;
55423;SDS011;41294;42.666;23.350;2023-09-12T01:59:28;4.10;;;3.37;;
55423;SDS011;41294;42.666;23.350;2023-09-12T02:01:54;4.07;;;3.03;;
55423;SDS011;41294;42.666;23.350;2023-09-12T02:04:20;4.73;;;3.77;;
55423;SDS011;41294;42.666;23.350;2023-09-12T02:06:45;3.43;;;3.10;;
55423;SDS011;41294;42.666;23.350;2023-09-12T02:09:11;5.13;;;3.37;;
55423;SDS011;41294;42.666;23.350;2023-09-12T02:11:36;5.60;;;3.30;;
55423;SDS011;41294;42.666;23.350;2023-09-12T02:14:01;4.00;;;3.20;;
55423;SDS011;41294;42.666;23.350;2023-09-12T02:16:27;4.73;;;3.30;;
55423;SDS011;41294;42.666;23.350;2023-09-12T02:18:54;5.30;;;3.23;;
55423;SDS011;41294;42.666;23.350;2023-09-12T02:21:19;5.87;;;3.97;;
55423;SDS011;41294;42.666;23.350;2023-09-12T02:23:45;4.90;;;3.57;;
55423;SDS011;41294;42.666;23.350;2023-09-12T02:26:10;4.97;;;3.57;;
55423;SDS011;41294;42.666;23.350;2023-09-12T02:28:35;8.17;;;3.23;;
55423;SDS011;41294;42.666;23.350;2023-09-12T02:31:01;3.50;;;3.20;;
55423;SDS011;41294;42.666;23.350;2023-09-12T02:33:26;5.93;;;3.13;;
55423;SDS011;41294;42.666;23.350;2023-09-12T02:35:51;5.63;;;3.67;;
55423;SDS011;41294;42.666;23.350;2023-09-12T02:38:17;4.40;;;3.30;;
55423;SDS011;41294;42.666;23.350;2023-09-12T02:40:43;5.47;;;3.20;;
55423;SDS011;41294;42.666;23.350;2023-09-12T02:43:08;5.67;;;3.87;;
55423;SDS011;41294;42.666;23.350;2023-09-12T02:45:33;3.57;;;3.27;;
55423;SDS011;41294;42.666;23.350;2023-09-12T02:47:59;8.30;;;3.70;;
55423;SDS011;41294;42.666;23.350;2023-09-12T02:50:24;4.20;;;3.23;;
55423;SDS011;41294;42.666;23.350;2023-09-12T02:52:50;3.53;;;3.20;;
55423;SDS011;41294;42.666;23.350;2023-09-12T02:55:15;7.60;;;3.80;;
55423;SDS011;41294;42.666;23.350;2023-09-12T02:57:40;5.00;;;3.60;;
55423;SDS011;41294;42.666;23.350;2023-09-12T03:00:06;5.13;;;3.67;;
55423;SDS011;41294;42.666;23.350;2023-09-12T03:02:33;6.10;;;4.10;;
55423;SDS011;41294;42.666;23.350;2023-09-12T03:04:59;4.40;;;3.67;;
55423;SDS011;41294;42.666;23.350;2023-09-12T03:07:26;5.90;;;4.03;;
55423;SDS011;41294;42.666;23.350;2023-09-12T03:09:52;5.87;;;3.77;;
55423;SDS011;41294;42.666;23.350;2023-09-12T03:12:18;4.97;;;3.40;;
55423;SDS011;41294;42.666;23.350;2023-09-12T03:14:43;5.27;;;3.60;;
55423;SDS011;41294;42.666;23.350;2023-09-12T03:17:09;5.57;;;3.50;;
55423;SDS011;41294;42.666;23.350;2023-09-12T03:19:34;5.97;;;3.53;;
55423;SDS011;41294;42.666;23.350;2023-09-12T03:22:00;6.17;;;3.60;;
55423;SDS011;41294;42.666;23.350;2023-09-12T03:24:25;8.27;;;3.90;;
55423;SDS011;41294;42.666;23.350;2023-09-12T03:26:51;6.97;;;3.57;;
55423;SDS011;41294;42.666;23.350;2023-09-12T03:29:16;5.10;;;3.73;;
55423;SDS011;41294;42.666;23.350;2023-09-12T03:31:42;7.23;;;4.10;;
55423;SDS011;41294;42.666;23.350;2023-09-12T03:34:07;5.80;;;3.70;;
55423;SDS011;41294;42.666;23.350;2023-09-12T03:36:33;5.17;;;3.90;;
55423;SDS011;41294;42.666;23.350;2023-09-12T03:38:58;5.17;;;3.87;;
55423;SDS011;41294;42.666;23.350;2023-09-12T03:41:23;6.20;;;4.17;;
55423;SDS011;41294;42.666;23.350;2023-09-12T03:43:52;5.50;;;4.17;;
55423;SDS011;41294;42.666;23.350;2023-09-12T03:46:20;6.10;;;4.10;;
55423;SDS011;41294;42.666;23.350;2023-09-12T03:48:46;6.13;;;4.20;;
55423;SDS011;41294;42.666;23.350;2023-09-12T03:51:12;7.40;;;4.30;;
55423;SDS011;41294;42.666;23.350;2023-09-12T03:53:38;4.20;;;3.80;;
55423;SDS011;41294;42.666;23.350;2023-09-12T03:56:03;6.33;;;4.37;;
55423;SDS011;41294;42.666;23.350;2023-09-12T03:58:29;5.33;;;4.13;;
55423;SDS011;41294;42.666;23.350;2023-09-12T04:00:54;5.63;;;4.00;;
55423;SDS011;41294;42.666;23.350;2023-09-12T04:03:20;7.73;;;4.30;;
55423;SDS011;41294;42.666;23.350;2023-09-12T04:05:50;4.93;;;3.80;;
55423;SDS011;41294;42.666;23.350;2023-09-12T04:08:16;5.57;;;3.70;;
55423;SDS011;41294;42.666;23.350;2023-09-12T04:10:42;4.47;;;3.90;;
55423;SDS011;41294;42.666;23.350;2023-09-12T04:13:08;4.93;;;4.23;;
55423;SDS011;41294;42.666;23.350;2023-09-12T04:15:34;7.77;;;4.23;;
55423;SDS011;41294;42.666;23.350;2023-09-12T04:18:00;5.67;;;4.50;;
55423;SDS011;41294;42.666;23.350;2023-09-12T04:20:26;8.37;;;4.40;;
55423;SDS011;41294;42.666;23.350;2023-09-12T04:22:51;8.93;;;4.70;;
55423;SDS011;41294;42.666;23.350;2023-09-12T04:25:16;6.00;;;4.00;;
55423;SDS011;41294;42.666;23.350;2023-09-12T04:27:45;6.83;;;3.97;;
55423;SDS011;41294;42.666;23.350;2023-09-12T04:30:11;5.67;;;4.20;;
55423;SDS011;41294;42.666;23.350;2023-09-12T04:32:37;8.07;;;4.37;;
55423;SDS011;41294;42.666;23.350;2023-09-12T04:35:02;5.43;;;4.50;;
55423;SDS011;41294;42.666;23.350;2023-09-12T04:37:28;6.47;;;4.87;;
55423;SDS011;41294;42.666;23.350;2023-09-12T04:39:53;12.27;;;4.80;;
55423;SDS011;41294;42.666;23.350;2023-09-12T04:42:21;8.10;;;4.90;;
55423;SDS011;41294;42.666;23.350;2023-09-12T04:44:46;8.77;;;4.70;;
55423;SDS011;41294;42.666;23.350;2023-09-12T04:47:12;9.60;;;4.77;;
55423;SDS011;41294;42.666;23.350;2023-09-12T04:49:38;7.07;;;4.70;;
55423;SDS011;41294;42.666;23.350;2023-09-12T04:52:04;9.30;;;5.15;;
55423;SDS011;41294;42.666;23.350;2023-09-12T04:54:30;9.52;;;5.43;;
55423;SDS011;41294;42.666;23.350;2023-09-12T04:56:55;8.00;;;5.10;;
55423;SDS011;41294;42.666;23.350;2023-09-12T04:59:21;9.20;;;5.18;;
55423;SDS011;41294;42.666;23.350;2023-09-12T05:01:46;8.82;;;5.10;;
55423;SDS011;41294;42.666;23.350;2023-09-12T05:04:12;8.10;;;4.75;;
55423;SDS011;41294;42.666;23.350;2023-09-12T05:06:38;6.38;;;4.60;;
55423;SDS011;41294;42.666;23.350;2023-09-12T05:09:05;7.00;;;4.82;;
55423;SDS011;41294;42.666;23.350;2023-09-12T05:11:31;10.10;;;5.20;;
55423;SDS011;41294;42.666;23.350;2023-09-12T05:13:56;10.95;;;4.75;;
55423;SDS011;41294;42.666;23.350;2023-09-12T05:16:22;6.78;;;4.50;;
55423;SDS011;41294;42.666;23.350;2023-09-12T05:18:47;4.72;;;3.95;;
55423;SDS011;41294;42.666;23.350;2023-09-12T05:21:14;7.28;;;4.65;;
55423;SDS011;41294;42.666;23.350;2023-09-12T05:23:40;8.02;;;4.72;;
55423;SDS011;41294;42.666;23.350;2023-09-12T05:26:05;8.43;;;4.80;;
55423;SDS011;41294;42.666;23.350;2023-09-12T05:28:31;8.98;;;4.50;;
55423;SDS011;41294;42.666;23.350;2023-09-12T05:30:56;8.20;;;4.38;;
55423;SDS011;41294;42.666;23.350;2023-09-12T05:33:22;10.85;;;4.72;;
55423;SDS011;41294;42.666;23.350;2023-09-12T05:35:48;6.95;;;4.30;;
55423;SDS011;41294;42.666;23.350;2023-09-12T05:38:14;11.45;;;4.63;;
55423;SDS011;41294;42.666;23.350;2023-09-12T05:40:39;7.55;;;4.35;;
55423;SDS011;41294;42.666;23.350;2023-09-12T05:43:05;7.97;;;4.70;;
55423;SDS011;41294;42.666;23.350;2023-09-12T05:45:30;8.82;;;4.95;;
55423;SDS011;41294;42.666;23.350;2023-09-12T05:47:59;10.93;;;4.50;;
55423;SDS011;41294;42.666;23.350;2023-09-12T05:50:25;5.53;;;4.05;;
55423;SDS011;41294;42.666;23.350;2023-09-12T05:52:50;12.07;;;4.70;;
55423;SDS011;41294;42.666;23.350;2023-09-12T05:55:16;8.70;;;4.28;;
55423;SDS011;41294;42.666;23.350;2023-09-12T05:57:42;6.72;;;4.60;;
55423;SDS011;41294;42.666;23.350;2023-09-12T06:00:08;6.47;;;4.45;;
55423;SDS011;41294;42.666;23.350;2023-09-12T06:02:40;8.35;;;5.10;;
55423;SDS011;41294;42.666;23.350;2023-09-12T06:05:06;9.27;;;5.57;;
55423;SDS011;41294;42.666;23.350;2023-09-12T06:07:31;7.40;;;5.13;;
55423;SDS011;41294;42.666;23.350;2023-09-12T06:09:57;12.30;;;5.28;;
55423;SDS011;41294;42.666;23.350;2023-09-12T06:12:24;10.73;;;5.30;;
55423;SDS011;41294;42.666;23.350;2023-09-12T06:14:50;9.48;;;5.50;;
55423;SDS011;41294;42.666;23.350;2023-09-12T06:17:16;9.93;;;5.60;;
55423;SDS011;41294;42.666;23.350;2023-09-12T06:19:41;9.88;;;5.60;;
55423;SDS011;41294;42.666;23.350;2023-09-12T06:22:07;8.38;;;5.85;;
55423;SDS011;41294;42.666;23.350;2023-09-12T06:24:33;9.90;;;5.55;;
55423;SDS011;41294;42.666;23.350;2023-09-12T06:26:58;7.30;;;4.88;;
55423;SDS011;41294;42.666;23.350;2023-09-12T06:29:24;11.20;;;5.40;;
55423;SDS011;41294;42.666;23.350;2023-09-12T06:31:49;6.30;;;4.90;;
55423;SDS011;41294;42.666;23.350;2023-09-12T06:34:14;6.50;;;4.93;;
55423;SDS011;41294;42.666;23.350;2023-09-12T06:36:40;7.55;;;5.30;;
55423;SDS011;41294;42.666;23.350;2023-09-12T06:39:09;7.45;;;4.68;;
55423;SDS011;41294;42.666;23.350;2023-09-12T06:41:35;8.25;;;5.15;;
55423;SDS011;41294;42.666;23.350;2023-09-12T06:44:00;7.25;;;4.50;;
55423;SDS011;41294;42.666;23.350;2023-09-12T06:46:27;7.25;;;4.85;;
55423;SDS011;41294;42.666;23.350;2023-09-12T06:48:53;6.57;;;3.92;;
55423;SDS011;41294;42.666;23.350;2023-09-12T06:51:18;4.82;;;3.60;;
55423;SDS011;41294;42.666;23.350;2023-09-12T06:53:51;5.65;;;4.03;;
55423;SDS011;41294;42.666;23.350;2023-09-12T06:56:16;7.82;;;3.65;;
55423;SDS011;41294;42.666;23.350;2023-09-12T06:58:42;5.72;;;4.10;;
55423;SDS011;41294;42.666;23.350;2023-09-12T07:01:07;7.50;;;4.32;;
55423;SDS011;41294;42.666;23.350;2023-09-12T07:03:33;5.95;;;4.28;;
55423;SDS011;41294;42.666;23.350;2023-09-12T07:05:59;6.55;;;3.80;;
55423;SDS011;41294;42.666;23.350;2023-09-12T07:08:25;7.78;;;3.97;;
55423;SDS011;41294;42.666;23.350;2023-09-12T07:10:50;7.32;;;3.78;;
55423;SDS011;41294;42.666;23.350;2023-09-12T07:13:16;6.18;;;4.20;;
55423;SDS011;41294;42.666;23.350;2023-09-12T07:15:41;8.63;;;4.07;;
55423;SDS011;41294;42.666;23.350;2023-09-12T07:18:07;7.65;;;4.28;;
55423;SDS011;41294;42.666;23.350;2023-09-12T07:20:36;7.20;;;3.78;;
55423;SDS011;41294;42.666;23.350;2023-09-12T07:23:01;8.85;;;4.00;;
55423;SDS011;41294;42.666;23.350;2023-09-12T07:25:27;6.97;;;3.80;;
55423;SDS011;41294;42.666;23.350;2023-09-12T07:27:52;6.10;;;3.95;;
55423;SDS011;41294;42.666;23.350;2023-09-12T07:30:18;4.78;;;3.95;;
55423;SDS011;41294;42.666;23.350;2023-09-12T07:32:43;5.25;;;3.72;;
55423;SDS011;41294;42.666;23.350;2023-09-12T07:35:09;5.95;;;3.90;;
55423;SDS011;41294;42.666;23.350;2023-09-12T07:37:35;6.07;;;3.80;;
55423;SDS011;41294;42.666;23.350;2023-09-12T07:40:00;6.03;;;3.53;;
55423;SDS011;41294;42.666;23.350;2023-09-12T07:42:27;5.22;;;3.53;;
55423;SDS011;41294;42.666;23.350;2023-09-12T07:44:52;7.47;;;3.75;;
55423;SDS011;41294;42.666;23.350;2023-09-12T07:47:18;5.38;;;3.50;;
55423;SDS011;41294;42.666;23.350;2023-09-12T07:49:44;6.38;;;3.30;;
55423;SDS011;41294;42.666;23.350;2023-09-12T07:52:09;5.13;;;3.17;;
55423;SDS011;41294;42.666;23.350;2023-09-12T07:54:35;4.65;;;3.38;;
55423;SDS011;41294;42.666;23.350;2023-09-12T07:57:02;4.72;;;3.35;;
55423;SDS011;41294;42.666;23.350;2023-09-12T07:59:28;6.55;;;3.88;;
55423;SDS011;41294;42.666;23.350;2023-09-12T08:01:53;5.07;;;3.90;;
55423;SDS011;41294;42.666;23.350;2023-09-12T08:04:19;5.72;;;3.60;;
55423;SDS011;41294;42.666;23.350;2023-09-12T08:06:44;6.45;;;3.78;;
55423;SDS011;41294;42.666;23.350;2023-09-12T08:09:09;9.38;;;4.13;;
55423;SDS011;41294;42.666;23.350;2023-09-12T08:11:35;7.20;;;4.10;;
55423;SDS011;41294;42.666;23.350;2023-09-12T08:14:01;5.50;;;3.33;;
55423;SDS011;41294;42.666;23.350;2023-09-12T08:16:26;8.63;;;3.72;;
55423;SDS011;41294;42.666;23.350;2023-09-12T08:18:52;7.30;;;4.38;;
55423;SDS011;41294;42.666;23.350;2023-09-12T08:21:17;6.10;;;3.80;;
55423;SDS011;41294;42.666;23.350;2023-09-12T08:23:43;7.30;;;4.05;;
55423;SDS011;41294;42.666;23.350;2023-09-12T08:26:08;6.20;;;3.45;;
55423;SDS011;41294;42.666;23.350;2023-09-12T08:28:34;6.60;;;3.33;;
55423;SDS011;41294;42.666;23.350;2023-09-12T08:30:59;9.00;;;3.83;;
55423;SDS011;41294;42.666;23.350;2023-09-12T08:33:25;6.38;;;3.47;;
55423;SDS011;41294;42.666;23.350;2023-09-12T08:35:50;8.85;;;3.58;;
55423;SDS011;41294;42.666;23.350;2023-09-12T08:38:16;5.63;;;3.25;;
55423;SDS011;41294;42.666;23.350;2023-09-12T08:40:47;5.00;;;3.22;;
55423;SDS011;41294;42.666;23.350;2023-09-12T08:43:14;4.70;;;2.83;;
55423;SDS011;41294;42.666;23.350;2023-09-12T08:45:40;5.85;;;3.58;;
55423;SDS011;41294;42.666;23.350;2023-09-12T08:48:05;5.07;;;2.97;;
55423;SDS011;41294;42.666;23.350;2023-09-12T08:50:32;4.65;;;3.28;;
55423;SDS011;41294;42.666;23.350;2023-09-12T08:52:59;4.20;;;2.88;;
55423;SDS011;41294;42.666;23.350;2023-09-12T08:55:25;4.60;;;3.08;;
55423;SDS011;41294;42.666;23.350;2023-09-12T08:57:51;5.15;;;2.88;;
55423;SDS011;41294;42.666;23.350;2023-09-12T09:00:18;5.05;;;3.00;;
55423;SDS011;41294;42.666;23.350;2023-09-12T09:02:46;6.95;;;3.22;;
55423;SDS011;41294;42.666;23.350;2023-09-12T09:05:12;7.53;;;2.95;;
55423;SDS011;41294;42.666;23.350;2023-09-12T09:07:39;7.80;;;2.78;;
55423;SDS011;41294;42.666;23.350;2023-09-12T09:10:06;7.82;;;3.78;;
55423;SDS011;41294;42.666;23.350;2023-09-12T09:12:33;4.03;;;2.58;;
55423;SDS011;41294;42.666;23.350;2023-09-12T09:17:56;4.75;;;3.00;;
55423;SDS011;41294;42.666;23.350;2023-09-12T09:20:29;3.30;;;2.90;;
55423;SDS011;41294;42.666;23.350;2023-09-12T09:22:57;6.18;;;3.35;;
55423;SDS011;41294;42.666;23.350;2023-09-12T09:25:23;3.55;;;3.15;;
55423;SDS011;41294;42.666;23.350;2023-09-12T09:27:49;3.80;;;2.83;;
55423;SDS011;41294;42.666;23.350;2023-09-12T09:30:14;5.85;;;3.10;;
55423;SDS011;41294;42.666;23.350;2023-09-12T09:32:40;4.88;;;3.05;;
55423;SDS011;41294;42.666;23.350;2023-09-12T09:35:06;6.90;;;3.50;;
55423;SDS011;41294;42.666;23.350;2023-09-12T09:37:32;9.55;;;3.55;;
55423;SDS011;41294;42.666;23.350;2023-09-12T09:39:57;7.32;;;2.97;;
55423;SDS011;41294;42.666;23.350;2023-09-12T09:42:23;5.10;;;3.33;;
55423;SDS011;41294;42.666;23.350;2023-09-12T09:44:48;6.03;;;2.80;;
55423;SDS011;41294;42.666;23.350;2023-09-12T09:47:14;4.30;;;2.85;;
55423;SDS011;41294;42.666;23.350;2023-09-12T09:49:40;7.88;;;3.40;;
55423;SDS011;41294;42.666;23.350;2023-09-12T09:52:05;7.25;;;3.03;;
55423;SDS011;41294;42.666;23.350;2023-09-12T09:54:31;5.75;;;3.17;;
55423;SDS011;41294;42.666;23.350;2023-09-12T09:56:57;5.15;;;3.08;;
55423;SDS011;41294;42.666;23.350;2023-09-12T09:59:24;5.65;;;3.50;;
55423;SDS011;41294;42.666;23.350;2023-09-12T10:01:51;5.97;;;3.25;;
55423;SDS011;41294;42.666;23.350;2023-09-12T10:04:23;6.25;;;2.85;;
55423;SDS011;41294;42.666;23.350;2023-09-12T10:06:51;6.07;;;2.85;;
55423;SDS011;41294;42.666;23.350;2023-09-12T10:09:20;4.53;;;2.83;;
55423;SDS011;41294;42.666;23.350;2023-09-12T10:11:48;6.38;;;2.70;;
55423;SDS011;41294;42.666;23.350;2023-09-12T10:14:17;3.40;;;2.67;;
55423;SDS011;41294;42.666;23.350;2023-09-12T10:16:48;5.82;;;2.97;;
55423;SDS011;41294;42.666;23.350;2023-09-12T10:19:17;5.25;;;2.95;;
55423;SDS011;41294;42.666;23.350;2023-09-12T10:24:32;5.53;;;3.00;;
55423;SDS011;41294;42.666;23.350;2023-09-12T10:27:00;3.95;;;2.83;;
55423;SDS011;41294;42.666;23.350;2023-09-12T10:29:27;5.10;;;3.08;;
55423;SDS011;41294;42.666;23.350;2023-09-12T10:31:53;5.53;;;3.08;;
55423;SDS011;41294;42.666;23.350;2023-09-12T10:34:18;5.97;;;3.15;;
55423;SDS011;41294;42.666;23.350;2023-09-12T10:36:45;6.13;;;2.70;;
55423;SDS011;41294;42.666;23.350;2023-09-12T10:39:12;5.40;;;2.95;;
55423;SDS011;41294;42.666;23.350;2023-09-12T10:41:39;4.45;;;2.67;;
55423;SDS011;41294;42.666;23.350;2023-09-12T10:44:09;5.65;;;2.53;;
55423;SDS011;41294;42.666;23.350;2023-09-12T10:46:39;5.88;;;2.80;;
55423;SDS011;41294;42.666;23.350;2023-09-12T10:49:08;5.00;;;3.22;;
55423;SDS011;41294;42.666;23.350;2023-09-12T10:51:42;4.50;;;2.78;;
55423;SDS011;41294;42.666;23.350;2023-09-12T10:54:12;11.90;;;3.20;;
55423;SDS011;41294;42.666;23.350;2023-09-12T10:56:38;8.25;;;3.08;;
55423;SDS011;41294;42.666;23.350;2023-09-12T11:01:33;6.65;;;2.92;;
55423;SDS011;41294;42.666;23.350;2023-09-12T11:04:45;5.15;;;2.97;;
55423;SDS011;41294;42.666;23.350;2023-09-12T11:06:48;6.68;;;2.60;;
55423;SDS011;41294;42.666;23.350;2023-09-12T11:11:47;4.00;;;2.90;;
55423;SDS011;41294;42.666;23.350;2023-09-12T11:14:24;4.68;;;2.78;;
55423;SDS011;41294;42.666;23.350;2023-09-12T11:19:42;3.38;;;2.88;;
55423;SDS011;41294;42.666;23.350;2023-09-12T11:24:47;5.70;;;3.13;;
55423;SDS011;41294;42.666;23.350;2023-09-12T11:27:13;9.15;;;3.13;;
55423;SDS011;41294;42.666;23.350;2023-09-12T11:29:40;6.22;;;3.13;;
55423;SDS011;41294;42.666;23.350;2023-09-12T11:32:06;7.13;;;3.10;;
55423;SDS011;41294;42.666;23.350;2023-09-12T11:34:36;5.75;;;2.83;;
55423;SDS011;41294;42.666;23.350;2023-09-12T11:37:09;8.73;;;2.90;;
55423;SDS011;41294;42.666;23.350;2023-09-12T11:39:36;5.10;;;2.63;;
55423;SDS011;41294;42.666;23.350;2023-09-12T11:42:04;4.47;;;2.72;;
55423;SDS011;41294;42.666;23.350;2023-09-12T11:44:33;3.40;;;2.70;;
55423;SDS011;41294;42.666;23.350;2023-09-12T11:46:59;7.05;;;3.30;;
55423;SDS011;41294;42.666;23.350;2023-09-12T11:49:38;5.63;;;2.60;;
55423;SDS011;41294;42.666;23.350;2023-09-12T11:52:09;6.13;;;3.40;;
55423;SDS011;41294;42.666;23.350;2023-09-12T11:54:39;5.85;;;3.05;;
55423;SDS011;41294;42.666;23.350;2023-09-12T11:57:14;5.35;;;3.13;;
55423;SDS011;41294;42.666;23.350;2023-09-12T11:59:41;7.00;;;2.85;;
55423;SDS011;41294;42.666;23.350;2023-09-12T12:02:10;4.25;;;2.97;;
55423;SDS011;41294;42.666;23.350;2023-09-12T12:04:36;4.95;;;3.00;;
55423;SDS011;41294;42.666;23.350;2023-09-12T12:07:02;4.90;;;3.08;;
55423;SDS011;41294;42.666;23.350;2023-09-12T12:09:29;4.57;;;3.20;;
55423;SDS011;41294;42.666;23.350;2023-09-12T12:11:55;8.57;;;3.22;;
55423;SDS011;41294;42.666;23.350;2023-09-12T12:14:25;3.67;;;3.10;;
55423;SDS011;41294;42.666;23.350;2023-09-12T12:16:51;4.93;;;3.38;;
55423;SDS011;41294;42.666;23.350;2023-09-12T12:19:17;6.75;;;3.58;;
55423;SDS011;41294;42.666;23.350;2023-09-12T12:21:43;7.47;;;3.10;;
55423;SDS011;41294;42.666;23.350;2023-09-12T12:24:12;5.20;;;3.40;;
55423;SDS011;41294;42.666;23.350;2023-09-12T12:26:42;5.28;;;3.35;;
55423;SDS011;41294;42.666;23.350;2023-09-12T12:29:08;5.32;;;3.10;;
55423;SDS011;41294;42.666;23.350;2023-09-12T12:31:35;4.95;;;3.10;;
55423;SDS011;41294;42.666;23.350;2023-09-12T12:34:01;4.13;;;2.85;;
55423;SDS011;41294;42.666;23.350;2023-09-12T12:36:26;4.50;;;3.10;;
55423;SDS011;41294;42.666;23.350;2023-09-12T12:38:52;4.03;;;2.92;;
55423;SDS011;41294;42.666;23.350;2023-09-12T12:41:22;4.45;;;3.33;;
55423;SDS011;41294;42.666;23.350;2023-09-12T12:43:52;4.60;;;3.10;;
55423;SDS011;41294;42.666;23.350;2023-09-12T12:46:20;7.80;;;3.55;;
55423;SDS011;41294;42.666;23.350;2023-09-12T12:48:46;6.00;;;3.33;;
55423;SDS011;41294;42.666;23.350;2023-09-12T12:51:23;4.60;;;3.00;;
55423;SDS011;41294;42.666;23.350;2023-09-12T12:53:50;6.53;;;3.30;;
55423;SDS011;41294;42.666;23.350;2023-09-12T12:56:18;5.47;;;3.17;;
55423;SDS011;41294;42.666;23.350;2023-09-12T12:58:49;6.95;;;3.42;;
55423;SDS011;41294;42.666;23.350;2023-09-12T13:01:16;7.22;;;3.40;;
55423;SDS011;41294;42.666;23.350;2023-09-12T13:03:41;6.80;;;3.20;;
55423;SDS011;41294;42.666;23.350;2023-09-12T13:06:07;9.48;;;3.80;;
55423;SDS011;41294;42.666;23.350;2023-09-12T13:08:38;5.10;;;3.20;;
55423;SDS011;41294;42.666;23.350;2023-09-12T13:11:05;3.70;;;3.28;;
55423;SDS011;41294;42.666;23.350;2023-09-12T13:13:30;5.53;;;3.20;;
55423;SDS011;41294;42.666;23.350;2023-09-12T13:15:56;5.85;;;3.28;;
55423;SDS011;41294;42.666;23.350;2023-09-12T13:18:21;3.85;;;3.22;;
55423;SDS011;41294;42.666;23.350;2023-09-12T13:20:46;7.10;;;3.13;;
55423;SDS011;41294;42.666;23.350;2023-09-12T13:23:12;7.45;;;3.10;;
55423;SDS011;41294;42.666;23.350;2023-09-12T13:25:37;6.72;;;3.03;;
55423;SDS011;41294;42.666;23.350;2023-09-12T13:28:03;5.15;;;3.53;;
55423;SDS011;41294;42.666;23.350;2023-09-12T13:30:29;4.75;;;2.90;;
55423;SDS011;41294;42.666;23.350;2023-09-12T13:32:55;3.90;;;2.90;;
55423;SDS011;41294;42.666;23.350;2023-09-12T13:35:20;6.97;;;3.63;;
55423;SDS011;41294;42.666;23.350;2023-09-12T13:37:45;4.38;;;3.40;;
55423;SDS011;41294;42.666;23.350;2023-09-12T13:40:11;7.15;;;3.42;;
55423;SDS011;41294;42.666;23.350;2023-09-12T13:42:36;5.80;;;2.95;;
55423;SDS011;41294;42.666;23.350;2023-09-12T13:45:02;5.30;;;3.28;;
55423;SDS011;41294;42.666;23.350;2023-09-12T13:47:27;8.27;;;3.35;;
55423;SDS011;41294;42.666;23.350;2023-09-12T13:49:53;4.45;;;3.15;;
55423;SDS011;41294;42.666;23.350;2023-09-12T13:52:21;6.47;;;3.13;;
55423;SDS011;41294;42.666;23.350;2023-09-12T13:54:47;5.22;;;3.00;;
55423;SDS011;41294;42.666;23.350;2023-09-12T13:57:13;5.60;;;3.08;;
55423;SDS011;41294;42.666;23.350;2023-09-12T13:59:38;4.85;;;3.40;;
55423;SDS011;41294;42.666;23.350;2023-09-12T14:02:04;5.13;;;3.00;;
55423;SDS011;41294;42.666;23.350;2023-09-12T14:04:30;5.68;;;2.95;;
55423;SDS011;41294;42.666;23.350;2023-09-12T14:06:55;4.85;;;3.55;;
55423;SDS011;41294;42.666;23.350;2023-09-12T14:09:20;5.45;;;3.05;;
55423;SDS011;41294;42.666;23.350;2023-09-12T14:11:46;4.63;;;3.10;;
55423;SDS011;41294;42.666;23.350;2023-09-12T14:14:12;4.93;;;3.17;;
55423;SDS011;41294;42.666;23.350;2023-09-12T14:16:38;6.55;;;3.20;;
55423;SDS011;41294;42.666;23.350;2023-09-12T14:19:03;5.38;;;3.40;;
55423;SDS011;41294;42.666;23.350;2023-09-12T14:21:29;4.75;;;3.63;;
55423;SDS011;41294;42.666;23.350;2023-09-12T14:23:54;5.43;;;3.30;;
55423;SDS011;41294;42.666;23.350;2023-09-12T14:26:20;7.25;;;3.55;;
55423;SDS011;41294;42.666;23.350;2023-09-12T14:28:45;3.28;;;2.92;;
55423;SDS011;41294;42.666;23.350;2023-09-12T14:31:11;3.72;;;2.88;;
55423;SDS011;41294;42.666;23.350;2023-09-12T14:33:39;6.35;;;3.15;;
55423;SDS011;41294;42.666;23.350;2023-09-12T14:36:08;5.50;;;3.40;;
55423;SDS011;41294;42.666;23.350;2023-09-12T14:38:34;5.40;;;3.00;;
55423;SDS011;41294;42.666;23.350;2023-09-12T14:41:00;7.18;;;3.05;;
55423;SDS011;41294;42.666;23.350;2023-09-12T14:43:26;4.32;;;3.10;;
55423;SDS011;41294;42.666;23.350;2023-09-12T14:45:53;8.30;;;3.42;;
55423;SDS011;41294;42.666;23.350;2023-09-12T14:48:19;9.38;;;3.75;;
55423;SDS011;41294;42.666;23.350;2023-09-12T14:50:45;5.60;;;3.00;;